sensor_id;sensor_type;location;lat;lon;timestamp;temperature;humidity
24902;DHT22;31328;51.402;0.016;2023-04-03T00:00:58;5.50;98.30
24902;DHT22;31328;51.402;0.016;2023-04-03T00:03:25;5.50;98.40
24902;DHT22;31328;51.402;0.016;2023-04-03T00:05:51;5.50;98.40
24902;DHT22;31328;51.402;0.016;2023-04-03T00:08:18;5.50;98.40
24902;DHT22;31328;51.402;0.016;2023-04-03T00:10:45;5.40;98.50
24902;DHT22;31328;51.402;0.016;2023-04-03T00:13:11;5.40;98.50
24902;DHT22;31328;51.402;0.016;2023-04-03T00:15:38;5.30;98.60
24902;DHT22;31328;51.402;0.016;2023-04-03T00:18:05;5.30;98.70
24902;DHT22;31328;51.402;0.016;2023-04-03T00:20:33;5.20;98.70
24902;DHT22;31328;51.402;0.016;2023-04-03T00:23:00;5.20;98.80
24902;DHT22;31328;51.402;0.016;2023-04-03T00:25:26;5.10;98.80
24902;DHT22;31328;51.402;0.016;2023-04-03T00:27:53;5.00;98.90
24902;DHT22;31328;51.402;0.016;2023-04-03T00:30:21;5.00;99.30
24902;DHT22;31328;51.402;0.016;2023-04-03T00:32:52;4.90;99.00
24902;DHT22;31328;51.402;0.016;2023-04-03T00:35:20;4.90;99.10
24902;DHT22;31328;51.402;0.016;2023-04-03T00:37:47;4.80;99.20
24902;DHT22;31328;51.402;0.016;2023-04-03T00:40:15;4.80;99.30
24902;DHT22;31328;51.402;0.016;2023-04-03T00:42:43;4.80;99.30
24902;DHT22;31328;51.402;0.016;2023-04-03T00:45:26;4.80;99.40
24902;DHT22;31328;51.402;0.016;2023-04-03T00:47:53;4.80;99.40
24902;DHT22;31328;51.402;0.016;2023-04-03T00:50:20;4.90;99.50
24902;DHT22;31328;51.402;0.016;2023-04-03T00:52:47;4.90;99.40
24902;DHT22;31328;51.402;0.016;2023-04-03T00:55:15;4.90;99.70
24902;DHT22;31328;51.402;0.016;2023-04-03T00:57:41;4.90;99.50
24902;DHT22;31328;51.402;0.016;2023-04-03T01:00:11;4.90;99.50
24902;DHT22;31328;51.402;0.016;2023-04-03T01:02:38;4.90;99.50
24902;DHT22;31328;51.402;0.016;2023-04-03T01:05:08;4.90;99.50
24902;DHT22;31328;51.402;0.016;2023-04-03T01:07:34;4.90;99.60
24902;DHT22;31328;51.402;0.016;2023-04-03T01:10:09;4.90;99.50
24902;DHT22;31328;51.402;0.016;2023-04-03T01:12:38;4.90;99.60
24902;DHT22;31328;51.402;0.016;2023-04-03T01:15:08;4.90;99.70
24902;DHT22;31328;51.402;0.016;2023-04-03T01:17:40;4.80;99.60
24902;DHT22;31328;51.402;0.016;2023-04-03T01:23:01;4.80;99.70
24902;DHT22;31328;51.402;0.016;2023-04-03T01:25:30;4.70;99.70
24902;DHT22;31328;51.402;0.016;2023-04-03T01:27:58;4.80;99.70
24902;DHT22;31328;51.402;0.016;2023-04-03T01:30:30;4.70;99.70
24902;DHT22;31328;51.402;0.016;2023-04-03T01:32:58;4.70;99.80
24902;DHT22;31328;51.402;0.016;2023-04-03T01:35:25;4.70;99.90
24902;DHT22;31328;51.402;0.016;2023-04-03T01:37:52;4.60;99.80
24902;DHT22;31328;51.402;0.016;2023-04-03T01:40:19;4.70;99.90
24902;DHT22;31328;51.402;0.016;2023-04-03T01:42:46;4.70;99.90
24902;DHT22;31328;51.402;0.016;2023-04-03T01:45:12;4.60;99.90
24902;DHT22;31328;51.402;0.016;2023-04-03T01:47:39;4.60;99.90
24902;DHT22;31328;51.402;0.016;2023-04-03T01:50:06;4.60;99.90
24902;DHT22;31328;51.402;0.016;2023-04-03T01:52:34;4.50;99.90
24902;DHT22;31328;51.402;0.016;2023-04-03T01:55:00;4.50;99.90
24902;DHT22;31328;51.402;0.016;2023-04-03T01:57:26;4.50;99.90
24902;DHT22;31328;51.402;0.016;2023-04-03T01:59:53;4.40;99.90
24902;DHT22;31328;51.402;0.016;2023-04-03T02:02:19;4.40;99.90
24902;DHT22;31328;51.402;0.016;2023-04-03T02:04:46;4.40;99.90
24902;DHT22;31328;51.402;0.016;2023-04-03T02:07:12;4.30;99.90
24902;DHT22;31328;51.402;0.016;2023-04-03T02:09:38;4.30;99.90
24902;DHT22;31328;51.402;0.016;2023-04-03T02:12:05;4.30;99.90
24902;DHT22;31328;51.402;0.016;2023-04-03T02:14:32;4.20;99.90
24902;DHT22;31328;51.402;0.016;2023-04-03T02:17:00;4.20;99.90
24902;DHT22;31328;51.402;0.016;2023-04-03T02:19:31;4.20;99.90
24902;DHT22;31328;51.402;0.016;2023-04-03T02:21:57;4.10;99.90
24902;DHT22;31328;51.402;0.016;2023-04-03T02:24:24;4.10;99.90
24902;DHT22;31328;51.402;0.016;2023-04-03T02:26:50;4.10;99.90
24902;DHT22;31328;51.402;0.016;2023-04-03T02:29:17;4.00;99.90
24902;DHT22;31328;51.402;0.016;2023-04-03T02:31:43;4.00;99.90
24902;DHT22;31328;51.402;0.016;2023-04-03T02:34:09;4.00;99.90
24902;DHT22;31328;51.402;0.016;2023-04-03T02:36:37;3.90;99.90
24902;DHT22;31328;51.402;0.016;2023-04-03T02:39:06;3.90;99.90
24902;DHT22;31328;51.402;0.016;2023-04-03T02:41:35;3.90;99.90
24902;DHT22;31328;51.402;0.016;2023-04-03T02:44:04;3.90;99.90
24902;DHT22;31328;51.402;0.016;2023-04-03T02:46:32;3.80;99.90
24902;DHT22;31328;51.402;0.016;2023-04-03T02:48:58;3.80;99.90
24902;DHT22;31328;51.402;0.016;2023-04-03T02:51:24;3.70;99.90
24902;DHT22;31328;51.402;0.016;2023-04-03T02:53:52;3.70;99.90
24902;DHT22;31328;51.402;0.016;2023-04-03T02:56:23;3.60;99.90
24902;DHT22;31328;51.402;0.016;2023-04-03T02:58:49;3.60;99.90
24902;DHT22;31328;51.402;0.016;2023-04-03T03:01:17;3.60;99.90
24902;DHT22;31328;51.402;0.016;2023-04-03T03:03:44;3.50;99.90
24902;DHT22;31328;51.402;0.016;2023-04-03T03:06:13;3.50;99.90
24902;DHT22;31328;51.402;0.016;2023-04-03T03:08:40;3.50;99.90
24902;DHT22;31328;51.402;0.016;2023-04-03T03:11:08;3.50;99.90
24902;DHT22;31328;51.402;0.016;2023-04-03T03:13:35;3.40;99.90
24902;DHT22;31328;51.402;0.016;2023-04-03T03:16:02;3.40;99.90
24902;DHT22;31328;51.402;0.016;2023-04-03T03:18:29;3.40;99.90
24902;DHT22;31328;51.402;0.016;2023-04-03T03:20:56;3.30;99.90
24902;DHT22;31328;51.402;0.016;2023-04-03T03:23:24;3.30;99.90
24902;DHT22;31328;51.402;0.016;2023-04-03T03:25:56;3.20;99.90
24902;DHT22;31328;51.402;0.016;2023-04-03T03:28:22;3.10;99.90
24902;DHT22;31328;51.402;0.016;2023-04-03T03:30:49;3.10;99.90
24902;DHT22;31328;51.402;0.016;2023-04-03T03:33:17;3.10;99.90
24902;DHT22;31328;51.402;0.016;2023-04-03T03:35:44;3.00;99.90
24902;DHT22;31328;51.402;0.016;2023-04-03T03:38:11;2.90;99.90
24902;DHT22;31328;51.402;0.016;2023-04-03T03:40:38;2.90;99.90
24902;DHT22;31328;51.402;0.016;2023-04-03T03:43:04;2.90;99.90
24902;DHT22;31328;51.402;0.016;2023-04-03T03:45:31;2.80;99.90
24902;DHT22;31328;51.402;0.016;2023-04-03T03:47:58;2.90;99.90
24902;DHT22;31328;51.402;0.016;2023-04-03T03:50:24;2.80;99.90
24902;DHT22;31328;51.402;0.016;2023-04-03T03:52:51;2.80;99.90
24902;DHT22;31328;51.402;0.016;2023-04-03T03:55:17;2.70;99.90
24902;DHT22;31328;51.402;0.016;2023-04-03T03:57:46;2.70;99.90
24902;DHT22;31328;51.402;0.016;2023-04-03T04:00:13;2.70;99.90
24902;DHT22;31328;51.402;0.016;2023-04-03T04:02:44;2.70;99.90
24902;DHT22;31328;51.402;0.016;2023-04-03T04:05:14;2.70;99.90
24902;DHT22;31328;51.402;0.016;2023-04-03T04:07:41;2.70;99.90
24902;DHT22;31328;51.402;0.016;2023-04-03T04:10:08;2.70;99.90
24902;DHT22;31328;51.402;0.016;2023-04-03T04:12:36;2.70;99.90
24902;DHT22;31328;51.402;0.016;2023-04-03T04:15:03;2.70;99.90
24902;DHT22;31328;51.402;0.016;2023-04-03T04:17:29;2.80;99.90
24902;DHT22;31328;51.402;0.016;2023-04-03T04:19:56;2.80;99.90
24902;DHT22;31328;51.402;0.016;2023-04-03T04:22:23;2.90;99.90
24902;DHT22;31328;51.402;0.016;2023-04-03T04:24:49;2.90;99.90
24902;DHT22;31328;51.402;0.016;2023-04-03T04:27:16;2.90;99.90
24902;DHT22;31328;51.402;0.016;2023-04-03T04:29:42;2.90;99.90
24902;DHT22;31328;51.402;0.016;2023-04-03T04:32:09;2.90;99.90
24902;DHT22;31328;51.402;0.016;2023-04-03T04:34:35;2.90;99.90
24902;DHT22;31328;51.402;0.016;2023-04-03T04:37:02;2.90;99.90
24902;DHT22;31328;51.402;0.016;2023-04-03T04:39:29;2.90;99.90
24902;DHT22;31328;51.402;0.016;2023-04-03T04:41:57;2.90;99.90
24902;DHT22;31328;51.402;0.016;2023-04-03T04:44:26;2.90;99.90
24902;DHT22;31328;51.402;0.016;2023-04-03T04:46:53;2.90;99.90
24902;DHT22;31328;51.402;0.016;2023-04-03T04:49:20;2.90;99.90
24902;DHT22;31328;51.402;0.016;2023-04-03T04:51:46;3.00;99.90
24902;DHT22;31328;51.402;0.016;2023-04-03T04:54:14;3.00;99.90
24902;DHT22;31328;51.402;0.016;2023-04-03T04:56:41;3.00;99.90
24902;DHT22;31328;51.402;0.016;2023-04-03T04:59:08;3.00;99.90
24902;DHT22;31328;51.402;0.016;2023-04-03T05:01:34;3.10;99.90
24902;DHT22;31328;51.402;0.016;2023-04-03T05:04:07;3.10;99.90
24902;DHT22;31328;51.402;0.016;2023-04-03T05:06:34;3.10;99.90
24902;DHT22;31328;51.402;0.016;2023-04-03T05:09:02;3.10;99.90
24902;DHT22;31328;51.402;0.016;2023-04-03T05:11:29;3.20;99.90
24902;DHT22;31328;51.402;0.016;2023-04-03T05:13:56;3.20;99.90
24902;DHT22;31328;51.402;0.016;2023-04-03T05:16:24;3.20;99.90
24902;DHT22;31328;51.402;0.016;2023-04-03T05:18:51;3.30;99.90
24902;DHT22;31328;51.402;0.016;2023-04-03T05:21:21;3.40;99.90
24902;DHT22;31328;51.402;0.016;2023-04-03T05:23:50;3.40;99.90
24902;DHT22;31328;51.402;0.016;2023-04-03T05:26:17;3.40;99.90
24902;DHT22;31328;51.402;0.016;2023-04-03T05:28:47;3.50;99.90
24902;DHT22;31328;51.402;0.016;2023-04-03T05:31:14;3.50;99.90
24902;DHT22;31328;51.402;0.016;2023-04-03T05:33:42;3.50;99.90
24902;DHT22;31328;51.402;0.016;2023-04-03T05:36:13;3.60;99.90
24902;DHT22;31328;51.402;0.016;2023-04-03T05:38:44;3.60;99.90
24902;DHT22;31328;51.402;0.016;2023-04-03T05:41:12;3.60;99.90
24902;DHT22;31328;51.402;0.016;2023-04-03T05:43:38;3.70;99.90
24902;DHT22;31328;51.402;0.016;2023-04-03T05:46:11;3.70;99.90
24902;DHT22;31328;51.402;0.016;2023-04-03T05:48:39;3.80;99.90
24902;DHT22;31328;51.402;0.016;2023-04-03T05:51:09;3.80;99.90
24902;DHT22;31328;51.402;0.016;2023-04-03T05:53:40;3.90;99.90
24902;DHT22;31328;51.402;0.016;2023-04-03T05:56:07;3.90;99.90
24902;DHT22;31328;51.402;0.016;2023-04-03T05:58:38;3.90;99.90
24902;DHT22;31328;51.402;0.016;2023-04-03T06:01:05;4.00;99.90
24902;DHT22;31328;51.402;0.016;2023-04-03T06:03:32;4.00;99.90
24902;DHT22;31328;51.402;0.016;2023-04-03T06:05:58;4.10;99.90
24902;DHT22;31328;51.402;0.016;2023-04-03T06:08:25;4.10;99.90
24902;DHT22;31328;51.402;0.016;2023-04-03T06:10:51;4.20;99.90
24902;DHT22;31328;51.402;0.016;2023-04-03T06:13:18;4.30;99.90
24902;DHT22;31328;51.402;0.016;2023-04-03T06:15:44;4.30;99.90
24902;DHT22;31328;51.402;0.016;2023-04-03T06:18:11;4.30;99.90
24902;DHT22;31328;51.402;0.016;2023-04-03T06:20:37;4.40;99.90
24902;DHT22;31328;51.402;0.016;2023-04-03T06:23:04;4.50;99.90
24902;DHT22;31328;51.402;0.016;2023-04-03T06:25:30;4.50;99.90
24902;DHT22;31328;51.402;0.016;2023-04-03T06:27:57;4.60;99.90
24902;DHT22;31328;51.402;0.016;2023-04-03T06:30:24;4.60;99.90
24902;DHT22;31328;51.402;0.016;2023-04-03T06:32:50;4.70;99.90
24902;DHT22;31328;51.402;0.016;2023-04-03T06:35:17;4.70;99.90
24902;DHT22;31328;51.402;0.016;2023-04-03T06:37:43;4.80;99.90
24902;DHT22;31328;51.402;0.016;2023-04-03T06:40:20;4.80;99.90
24902;DHT22;31328;51.402;0.016;2023-04-03T06:42:47;4.90;99.90
24902;DHT22;31328;51.402;0.016;2023-04-03T06:45:14;5.00;99.90
24902;DHT22;31328;51.402;0.016;2023-04-03T06:47:40;5.00;99.90
24902;DHT22;31328;51.402;0.016;2023-04-03T06:50:07;5.10;99.90
24902;DHT22;31328;51.402;0.016;2023-04-03T06:52:35;5.20;99.90
24902;DHT22;31328;51.402;0.016;2023-04-03T06:55:01;5.30;99.90
24902;DHT22;31328;51.402;0.016;2023-04-03T06:57:27;5.30;99.90
24902;DHT22;31328;51.402;0.016;2023-04-03T06:59:54;5.40;99.90
24902;DHT22;31328;51.402;0.016;2023-04-03T07:02:20;5.40;99.90
24902;DHT22;31328;51.402;0.016;2023-04-03T07:04:47;5.50;99.90
24902;DHT22;31328;51.402;0.016;2023-04-03T07:07:13;5.70;99.90
24902;DHT22;31328;51.402;0.016;2023-04-03T07:09:40;5.70;99.90
24902;DHT22;31328;51.402;0.016;2023-04-03T07:12:06;5.70;99.90
24902;DHT22;31328;51.402;0.016;2023-04-03T07:14:32;5.80;99.90
24902;DHT22;31328;51.402;0.016;2023-04-03T07:16:58;5.80;99.90
24902;DHT22;31328;51.402;0.016;2023-04-03T07:19:25;5.90;99.90
24902;DHT22;31328;51.402;0.016;2023-04-03T07:21:54;5.90;99.90
24902;DHT22;31328;51.402;0.016;2023-04-03T07:24:21;6.00;99.90
24902;DHT22;31328;51.402;0.016;2023-04-03T07:26:51;6.10;99.90
24902;DHT22;31328;51.402;0.016;2023-04-03T07:29:18;6.20;99.90
24902;DHT22;31328;51.402;0.016;2023-04-03T07:31:46;6.20;99.90
24902;DHT22;31328;51.402;0.016;2023-04-03T07:34:13;6.30;99.90
24902;DHT22;31328;51.402;0.016;2023-04-03T07:36:39;6.40;99.90
24902;DHT22;31328;51.402;0.016;2023-04-03T07:39:05;6.50;99.90
24902;DHT22;31328;51.402;0.016;2023-04-03T07:41:33;6.60;99.90
24902;DHT22;31328;51.402;0.016;2023-04-03T07:43:59;6.70;99.90
24902;DHT22;31328;51.402;0.016;2023-04-03T07:46:26;6.80;99.90
24902;DHT22;31328;51.402;0.016;2023-04-03T07:48:53;6.90;99.90
24902;DHT22;31328;51.402;0.016;2023-04-03T07:51:19;6.90;99.90
24902;DHT22;31328;51.402;0.016;2023-04-03T07:53:46;7.00;99.90
24902;DHT22;31328;51.402;0.016;2023-04-03T07:56:12;7.10;99.90
24902;DHT22;31328;51.402;0.016;2023-04-03T07:58:38;7.10;99.90
24902;DHT22;31328;51.402;0.016;2023-04-03T08:01:05;7.10;99.90
24902;DHT22;31328;51.402;0.016;2023-04-03T08:03:32;7.20;99.90
24902;DHT22;31328;51.402;0.016;2023-04-03T08:06:05;7.20;99.90
24902;DHT22;31328;51.402;0.016;2023-04-03T08:08:32;7.30;99.90
24902;DHT22;31328;51.402;0.016;2023-04-03T08:11:00;7.40;99.90
24902;DHT22;31328;51.402;0.016;2023-04-03T08:13:28;7.50;99.90
24902;DHT22;31328;51.402;0.016;2023-04-03T08:15:55;7.60;99.90
24902;DHT22;31328;51.402;0.016;2023-04-03T08:18:23;7.80;99.90
24902;DHT22;31328;51.402;0.016;2023-04-03T08:20:51;7.90;99.90
24902;DHT22;31328;51.402;0.016;2023-04-03T08:23:18;8.00;99.90
24902;DHT22;31328;51.402;0.016;2023-04-03T08:25:45;8.10;99.90
24902;DHT22;31328;51.402;0.016;2023-04-03T08:28:12;8.10;99.90
24902;DHT22;31328;51.402;0.016;2023-04-03T08:30:40;8.20;99.90
24902;DHT22;31328;51.402;0.016;2023-04-03T08:33:07;8.30;99.90
24902;DHT22;31328;51.402;0.016;2023-04-03T08:35:33;8.40;99.90
24902;DHT22;31328;51.402;0.016;2023-04-03T08:38:03;8.40;99.90
24902;DHT22;31328;51.402;0.016;2023-04-03T08:40:30;8.50;99.90
24902;DHT22;31328;51.402;0.016;2023-04-03T08:48:00;8.80;99.90
24902;DHT22;31328;51.402;0.016;2023-04-03T08:50:38;8.90;99.90
24902;DHT22;31328;51.402;0.016;2023-04-03T08:53:06;9.00;99.90
24902;DHT22;31328;51.402;0.016;2023-04-03T08:55:44;9.10;99.90
24902;DHT22;31328;51.402;0.016;2023-04-03T08:58:28;9.20;99.90
24902;DHT22;31328;51.402;0.016;2023-04-03T09:01:17;9.40;99.90
24902;DHT22;31328;51.402;0.016;2023-04-03T09:03:43;9.50;99.90
24902;DHT22;31328;51.402;0.016;2023-04-03T09:06:20;9.60;99.90
24902;DHT22;31328;51.402;0.016;2023-04-03T09:11:55;9.80;99.90
24902;DHT22;31328;51.402;0.016;2023-04-03T09:17:36;10.00;99.90
24902;DHT22;31328;51.402;0.016;2023-04-03T09:20:15;10.10;99.60
24902;DHT22;31328;51.402;0.016;2023-04-03T09:22:44;10.20;99.50
24902;DHT22;31328;51.402;0.016;2023-04-03T09:25:13;10.30;99.50
24902;DHT22;31328;51.402;0.016;2023-04-03T09:27:41;10.50;99.50
24902;DHT22;31328;51.402;0.016;2023-04-03T09:30:14;10.50;99.30
24902;DHT22;31328;51.402;0.016;2023-04-03T09:32:41;10.60;99.00
24902;DHT22;31328;51.402;0.016;2023-04-03T09:35:27;10.70;99.10
24902;DHT22;31328;51.402;0.016;2023-04-03T09:43:25;10.80;98.90
24902;DHT22;31328;51.402;0.016;2023-04-03T09:45:53;10.80;98.90
24902;DHT22;31328;51.402;0.016;2023-04-03T09:48:22;10.80;98.90
24902;DHT22;31328;51.402;0.016;2023-04-03T09:53:31;10.90;98.70
24902;DHT22;31328;51.402;0.016;2023-04-03T09:55:59;10.90;98.60
24902;DHT22;31328;51.402;0.016;2023-04-03T10:00:57;10.90;98.60
24902;DHT22;31328;51.402;0.016;2023-04-03T10:03:36;10.90;98.30
24902;DHT22;31328;51.402;0.016;2023-04-03T10:06:03;10.90;98.30
24902;DHT22;31328;51.402;0.016;2023-04-03T10:08:34;10.90;98.20
24902;DHT22;31328;51.402;0.016;2023-04-03T10:11:16;10.90;98.00
24902;DHT22;31328;51.402;0.016;2023-04-03T10:16:25;10.80;97.70
24902;DHT22;31328;51.402;0.016;2023-04-03T10:24:18;10.80;97.60
24902;DHT22;31328;51.402;0.016;2023-04-03T10:27:07;10.80;97.40
24902;DHT22;31328;51.402;0.016;2023-04-03T10:32:43;10.90;97.10
24902;DHT22;31328;51.402;0.016;2023-04-03T10:41:26;11.00;96.70
24902;DHT22;31328;51.402;0.016;2023-04-03T10:44:26;11.10;95.90
24902;DHT22;31328;51.402;0.016;2023-04-03T10:52:44;11.20;95.60
24902;DHT22;31328;51.402;0.016;2023-04-03T10:55:18;11.30;95.20
24902;DHT22;31328;51.402;0.016;2023-04-03T10:57:49;11.30;94.80
24902;DHT22;31328;51.402;0.016;2023-04-03T11:00:21;11.30;94.00
24902;DHT22;31328;51.402;0.016;2023-04-03T11:02:55;11.30;93.40
24902;DHT22;31328;51.402;0.016;2023-04-03T11:05:45;11.30;93.50
24902;DHT22;31328;51.402;0.016;2023-04-03T11:11:16;11.60;93.60
24902;DHT22;31328;51.402;0.016;2023-04-03T11:16:39;11.80;93.10
24902;DHT22;31328;51.402;0.016;2023-04-03T11:19:20;11.80;93.20
24902;DHT22;31328;51.402;0.016;2023-04-03T11:21:56;11.80;92.90
24902;DHT22;31328;51.402;0.016;2023-04-03T11:24:27;11.80;92.60
24902;DHT22;31328;51.402;0.016;2023-04-03T11:26:55;11.90;92.70
24902;DHT22;31328;51.402;0.016;2023-04-03T11:29:31;12.00;92.80
24902;DHT22;31328;51.402;0.016;2023-04-03T11:34:46;12.20;91.90
24902;DHT22;31328;51.402;0.016;2023-04-03T11:37:35;12.30;92.00
24902;DHT22;31328;51.402;0.016;2023-04-03T11:42:55;12.50;91.70
24902;DHT22;31328;51.402;0.016;2023-04-03T11:45:40;12.60;91.00
24902;DHT22;31328;51.402;0.016;2023-04-03T11:50:47;12.60;90.70
24902;DHT22;31328;51.402;0.016;2023-04-03T11:56:00;12.50;90.40
24902;DHT22;31328;51.402;0.016;2023-04-03T11:58:31;12.50;89.70
24902;DHT22;31328;51.402;0.016;2023-04-03T12:01:11;12.50;90.10
24902;DHT22;31328;51.402;0.016;2023-04-03T12:04:07;12.50;90.10
24902;DHT22;31328;51.402;0.016;2023-04-03T12:09:02;12.60;90.40
24902;DHT22;31328;51.402;0.016;2023-04-03T12:11:30;12.70;90.20
24902;DHT22;31328;51.402;0.016;2023-04-03T12:16:24;12.70;88.70
24902;DHT22;31328;51.402;0.016;2023-04-03T12:26:27;12.40;88.80
24902;DHT22;31328;51.402;0.016;2023-04-03T12:28:55;12.40;88.00
24902;DHT22;31328;51.402;0.016;2023-04-03T12:31:25;12.40;88.60
24902;DHT22;31328;51.402;0.016;2023-04-03T12:39:55;12.20;88.10
24902;DHT22;31328;51.402;0.016;2023-04-03T12:45:24;12.20;87.40
24902;DHT22;31328;51.402;0.016;2023-04-03T12:47:53;12.30;87.50
24902;DHT22;31328;51.402;0.016;2023-04-03T12:50:32;12.30;86.70
24902;DHT22;31328;51.402;0.016;2023-04-03T12:53:04;12.30;86.90
24902;DHT22;31328;51.402;0.016;2023-04-03T12:55:31;12.30;86.80
24902;DHT22;31328;51.402;0.016;2023-04-03T12:58:46;12.40;86.80
24902;DHT22;31328;51.402;0.016;2023-04-03T13:03:40;12.40;86.20
24902;DHT22;31328;51.402;0.016;2023-04-03T13:06:27;12.40;86.30
24902;DHT22;31328;51.402;0.016;2023-04-03T13:08:59;12.40;86.20
24902;DHT22;31328;51.402;0.016;2023-04-03T13:11:36;12.40;86.30
24902;DHT22;31328;51.402;0.016;2023-04-03T13:14:25;12.50;85.30
24902;DHT22;31328;51.402;0.016;2023-04-03T13:17:00;12.40;84.70
24902;DHT22;31328;51.402;0.016;2023-04-03T13:19:30;12.30;84.20
24902;DHT22;31328;51.402;0.016;2023-04-03T13:22:07;12.30;85.00
24902;DHT22;31328;51.402;0.016;2023-04-03T13:24:37;12.30;84.90
24902;DHT22;31328;51.402;0.016;2023-04-03T13:27:05;12.30;85.50
24902;DHT22;31328;51.402;0.016;2023-04-03T13:29:35;12.40;85.20
24902;DHT22;31328;51.402;0.016;2023-04-03T13:32:02;12.40;85.30
24902;DHT22;31328;51.402;0.016;2023-04-03T13:34:41;12.40;85.50
24902;DHT22;31328;51.402;0.016;2023-04-03T13:39:57;12.50;84.60
24902;DHT22;31328;51.402;0.016;2023-04-03T13:42:27;12.50;84.50
24902;DHT22;31328;51.402;0.016;2023-04-03T13:47:44;12.50;84.60
24902;DHT22;31328;51.402;0.016;2023-04-03T13:53:03;12.50;84.70
24902;DHT22;31328;51.402;0.016;2023-04-03T13:56:05;12.50;84.00
24902;DHT22;31328;51.402;0.016;2023-04-03T13:58:34;12.50;84.60
24902;DHT22;31328;51.402;0.016;2023-04-03T14:01:11;12.50;84.50
24902;DHT22;31328;51.402;0.016;2023-04-03T14:03:45;12.50;84.30
24902;DHT22;31328;51.402;0.016;2023-04-03T14:06:15;12.50;83.70
24902;DHT22;31328;51.402;0.016;2023-04-03T14:08:44;12.50;82.70
24902;DHT22;31328;51.402;0.016;2023-04-03T14:11:31;12.50;83.40
24902;DHT22;31328;51.402;0.016;2023-04-03T14:14:02;12.50;84.30
24902;DHT22;31328;51.402;0.016;2023-04-03T14:16:33;12.50;84.60
24902;DHT22;31328;51.402;0.016;2023-04-03T14:19:03;12.60;84.00
24902;DHT22;31328;51.402;0.016;2023-04-03T14:21:29;12.60;83.30
24902;DHT22;31328;51.402;0.016;2023-04-03T14:23:56;12.60;83.60
24902;DHT22;31328;51.402;0.016;2023-04-03T14:26:24;12.60;84.30
24902;DHT22;31328;51.402;0.016;2023-04-03T14:28:54;12.60;83.80
24902;DHT22;31328;51.402;0.016;2023-04-03T14:31:21;12.60;83.40
24902;DHT22;31328;51.402;0.016;2023-04-03T14:33:48;12.60;83.90
24902;DHT22;31328;51.402;0.016;2023-04-03T14:36:24;12.50;83.40
24902;DHT22;31328;51.402;0.016;2023-04-03T14:38:52;12.50;83.80
24902;DHT22;31328;51.402;0.016;2023-04-03T14:41:23;12.50;82.70
24902;DHT22;31328;51.402;0.016;2023-04-03T14:43:50;12.40;82.20
24902;DHT22;31328;51.402;0.016;2023-04-03T14:48:45;12.30;82.70
24902;DHT22;31328;51.402;0.016;2023-04-03T14:51:12;12.30;83.30
24902;DHT22;31328;51.402;0.016;2023-04-03T14:53:39;12.30;82.90
24902;DHT22;31328;51.402;0.016;2023-04-03T14:56:13;12.30;82.50
24902;DHT22;31328;51.402;0.016;2023-04-03T14:58:39;12.30;81.30
24902;DHT22;31328;51.402;0.016;2023-04-03T15:01:06;12.30;80.70
24902;DHT22;31328;51.402;0.016;2023-04-03T15:03:32;12.30;81.10
24902;DHT22;31328;51.402;0.016;2023-04-03T15:05:58;12.40;81.30
24902;DHT22;31328;51.402;0.016;2023-04-03T15:08:26;12.40;81.10
24902;DHT22;31328;51.402;0.016;2023-04-03T15:10:56;12.40;80.10
24902;DHT22;31328;51.402;0.016;2023-04-03T15:13:23;12.40;79.70
24902;DHT22;31328;51.402;0.016;2023-04-03T15:15:50;12.40;79.20
24902;DHT22;31328;51.402;0.016;2023-04-03T15:18:26;12.30;79.70
24902;DHT22;31328;51.402;0.016;2023-04-03T15:20:54;12.30;77.70
24902;DHT22;31328;51.402;0.016;2023-04-03T15:23:21;12.30;77.60
24902;DHT22;31328;51.402;0.016;2023-04-03T15:25:52;12.20;78.30
24902;DHT22;31328;51.402;0.016;2023-04-03T15:28:38;12.20;78.10
24902;DHT22;31328;51.402;0.016;2023-04-03T15:31:05;12.20;78.60
24902;DHT22;31328;51.402;0.016;2023-04-03T15:33:33;12.30;78.50
24902;DHT22;31328;51.402;0.016;2023-04-03T15:36:00;12.30;78.80
24902;DHT22;31328;51.402;0.016;2023-04-03T15:38:26;12.30;78.60
24902;DHT22;31328;51.402;0.016;2023-04-03T15:40:54;12.30;79.20
24902;DHT22;31328;51.402;0.016;2023-04-03T15:43:20;12.30;80.30
24902;DHT22;31328;51.402;0.016;2023-04-03T15:45:47;12.30;80.10
24902;DHT22;31328;51.402;0.016;2023-04-03T15:48:14;12.20;80.90
24902;DHT22;31328;51.402;0.016;2023-04-03T15:50:40;12.20;81.00
24902;DHT22;31328;51.402;0.016;2023-04-03T15:53:07;12.20;80.50
24902;DHT22;31328;51.402;0.016;2023-04-03T15:55:37;12.20;81.10
24902;DHT22;31328;51.402;0.016;2023-04-03T15:58:03;12.10;81.20
24902;DHT22;31328;51.402;0.016;2023-04-03T16:00:31;12.00;81.70
24902;DHT22;31328;51.402;0.016;2023-04-03T16:03:00;12.00;81.50
24902;DHT22;31328;51.402;0.016;2023-04-03T16:05:30;12.00;82.00
24902;DHT22;31328;51.402;0.016;2023-04-03T16:07:58;11.80;80.60
24902;DHT22;31328;51.402;0.016;2023-04-03T16:10:26;11.80;80.60
24902;DHT22;31328;51.402;0.016;2023-04-03T16:12:52;11.70;80.00
24902;DHT22;31328;51.402;0.016;2023-04-03T16:15:19;11.70;79.60
24902;DHT22;31328;51.402;0.016;2023-04-03T16:17:45;11.70;76.90
24902;DHT22;31328;51.402;0.016;2023-04-03T16:20:13;11.60;75.60
24902;DHT22;31328;51.402;0.016;2023-04-03T16:22:40;11.50;75.60
24902;DHT22;31328;51.402;0.016;2023-04-03T16:25:07;11.40;76.80
24902;DHT22;31328;51.402;0.016;2023-04-03T16:27:35;11.30;77.10
24902;DHT22;31328;51.402;0.016;2023-04-03T16:30:02;11.20;77.00
24902;DHT22;31328;51.402;0.016;2023-04-03T16:32:30;11.20;77.70
24902;DHT22;31328;51.402;0.016;2023-04-03T16:34:57;11.20;78.50
24902;DHT22;31328;51.402;0.016;2023-04-03T16:37:24;11.20;78.20
24902;DHT22;31328;51.402;0.016;2023-04-03T16:39:50;11.10;78.20
24902;DHT22;31328;51.402;0.016;2023-04-03T16:42:16;11.10;77.80
24902;DHT22;31328;51.402;0.016;2023-04-03T16:44:42;11.00;78.20
24902;DHT22;31328;51.402;0.016;2023-04-03T16:47:09;11.00;77.30
24902;DHT22;31328;51.402;0.016;2023-04-03T16:49:36;10.90;77.80
24902;DHT22;31328;51.402;0.016;2023-04-03T16:52:04;10.90;78.40
24902;DHT22;31328;51.402;0.016;2023-04-03T16:54:31;10.90;79.00
24902;DHT22;31328;51.402;0.016;2023-04-03T16:56:59;10.90;79.10
24902;DHT22;31328;51.402;0.016;2023-04-03T16:59:25;10.80;78.50
24902;DHT22;31328;51.402;0.016;2023-04-03T17:01:51;10.80;78.50
24902;DHT22;31328;51.402;0.016;2023-04-03T17:04:17;10.70;78.50
24902;DHT22;31328;51.402;0.016;2023-04-03T17:06:44;10.70;78.50
24902;DHT22;31328;51.402;0.016;2023-04-03T17:09:11;10.60;78.50
24902;DHT22;31328;51.402;0.016;2023-04-03T17:11:37;10.60;78.30
24902;DHT22;31328;51.402;0.016;2023-04-03T17:14:04;10.50;77.50
24902;DHT22;31328;51.402;0.016;2023-04-03T17:16:33;10.50;78.10
24902;DHT22;31328;51.402;0.016;2023-04-03T17:18:59;10.40;78.70
24902;DHT22;31328;51.402;0.016;2023-04-03T17:21:26;10.40;77.90
24902;DHT22;31328;51.402;0.016;2023-04-03T17:23:56;10.30;76.90
24902;DHT22;31328;51.402;0.016;2023-04-03T17:26:24;10.20;77.30
24902;DHT22;31328;51.402;0.016;2023-04-03T17:28:51;10.20;78.30
24902;DHT22;31328;51.402;0.016;2023-04-03T17:31:18;10.10;78.40